Flight Track Log - Related Links

Times and Time Zones

All times are in EDT time to prevent confusion due to time zone crossing. See the EGF3994 flight status page for this flight to view local times or setup timezone preferences in your user account.

Time Position Orientation Groundspeed Altitude Reporting Facility
EDT Latitude Longitude Course Direction KTS MPH feet Rate Location/Type
Thu 08:07:53 PM 41.9333 -87.8500 90° East 247 284 3,600  Level Chicago TRACON
Thu 08:09:00 PM 41.9624 -87.4906 98° East  Level FlightAware Approximate
Thu 08:09:37 PM 42.0006 -87.6833 61° Northeast 302 348 6,500  Level Chicago Center
Thu 08:10:00 PM 41.9492 -87.3552 95° East  Level FlightAware Approximate
Thu 08:10:39 PM 41.9903 -87.5708 97° East 301 346 8,400  Level Chicago Center
Thu 08:11:00 PM 41.9395 -87.2193 95° East  Level FlightAware Approximate
Thu 08:11:40 PM 41.9767 -87.4561 99° East 308 354 10,600  Level Chicago Center
Thu 08:12:00 PM 41.9333 -87.0832 90° East  Level FlightAware Approximate
Thu 08:12:42 PM 41.9672 -87.3358 96° East 321 369 12,100  Level Chicago Center
Thu 08:13:00 PM 41.9333 -86.9615 90° East  Level FlightAware Approximate
Thu 08:13:44 PM 41.9586 -87.2067 95° East 344 396 13,600  Level Chicago Center
Thu 08:14:46 PM 41.9411 -87.0450 98° East 363 418 15,100 1,220 Climbing Chicago Center
Thu 08:15:47 PM 41.9222 -86.9014 100° East 387 445 16,100 1,171 Climbing Chicago Center
Thu 08:16:49 PM 41.9050 -86.7531 99° East 401 461 17,500 1,742 Climbing Chicago Center
Thu 08:17:51 PM 41.8878 -86.6194 100° East 398 458 19,700 1,984 Climbing Chicago Center
Thu 08:18:53 PM 41.8708 -86.4800 99° East 382 440 21,600 1,548 Climbing Chicago Center
Thu 08:19:55 PM 41.8494 -86.3119 100° East 382 440 22,900 683 Climbing Chicago Center
Thu 08:20:56 PM 41.8094 -86.1786 112° Southeast 395 455 23,000 49 Climbing Chicago Center
Thu 08:21:58 PM 41.7303 -86.0806 137° Southeast 392 451 23,000  Level Chicago Center
Thu 08:23:00 PM 41.6450 -85.9808 139° Southeast 408 470 23,000  Level Chicago Center
Thu 08:24:02 PM 41.5597 -85.8769 138° Southeast 417 480 23,000  Level Chicago Center
Thu 08:25:03 PM 41.4728 -85.7750 139° Southeast 420 483 23,000  Level Chicago Center
Thu 08:26:05 PM 41.3717 -85.6539 138° Southeast 413 475 23,000  Level Chicago Center
Thu 08:27:07 PM 41.2892 -85.5553 138° Southeast 406 467 23,000  Level Chicago Center
Thu 08:28:08 PM 41.2053 -85.4556 138° Southeast 408 470 23,000  Level Chicago Center
Thu 08:29:10 PM 41.1206 -85.3567 139° Southeast 407 468 23,000 -194 Level Chicago Center
Thu 08:30:12 PM 41.0353 -85.2564 138° Southeast 410 472 22,600 -1,366 Descending Chicago Center
Thu 08:31:13 PM 40.9525 -85.1528 137° Southeast 412 474 20,200 -2,683 Descending Chicago Center
Thu 08:32:15 PM 40.8753 -85.0153 127° Southeast 393 452 17,100 -2,468 Descending Chicago Center
Thu 08:33:17 PM 40.8117 -84.9094 128° Southeast 376 433 15,100 -1,016 Descending Chicago Center
Thu 08:34:19 PM 40.7506 -84.8094 129° Southeast 357 411 15,000 -49 Descending Chicago Center
Thu 08:35:20 PM 40.6911 -84.7028 126° Southeast 360 414 15,000 -341 Level Chicago Center
Thu 08:36:22 PM 40.6289 -84.5989 128° Southeast 362 417 14,300 -1,213 Descending Chicago Center
Thu 08:36:54 PM 40.5867 -84.5486 138° Southeast 343 395 13,100 -2,123 Descending Indianapolis Center
Thu 08:37:27 PM 40.5389 -84.5200 156° South 325 374 12,000 -1,935 Descending Indianapolis Center
Thu 08:37:56 PM 40.5014 -84.5006 158° South 331 381 11,100 -1,082 Descending Indianapolis Center
Thu 08:38:28 PM 40.4544 -84.4756 158° South 329 379 10,900 -787 Descending Indianapolis Center
Thu 08:38:57 PM 40.4192 -84.4561 157° South 321 369 10,300 -1,164 Descending Indianapolis Center
Thu 08:39:35 PM 40.3700 -84.4308 159° South 265 305 9,600 -1,161 Descending Indianapolis Center
Thu 08:39:59 PM 40.3503 -84.4181 154° Southeast 276 318 9,100 -1,714 Descending Indianapolis Center
Thu 08:40:24 PM 40.3197 -84.4022 158° South 241 277 8,200 -1,645 Descending Indianapolis Center
Thu 08:41:01 PM 40.2856 -84.3839 158° South 259 298 7,400 -1,500 Descending Indianapolis Center
Thu 08:41:24 PM 40.2578 -84.3664 154° Southeast 239 275 6,700 -1,279 Descending Indianapolis Center
Thu 08:42:02 PM 40.2256 -84.3478 156° South 246 283 6,100 -885 Descending Indianapolis Center
Thu 08:42:25 PM 40.1956 -84.3306 156° South 230 265 5,800 -774 Descending Indianapolis Center
Thu 08:43:04 PM 40.1681 -84.3128 154° Southeast 235 270 5,300 -689 Descending Indianapolis Center
Thu 08:43:26 PM 40.1378 -84.2928 153° Southeast 231 266 5,100 -787 Descending Indianapolis Center
Thu 08:44:05 PM 40.0986 -84.2692 155° Southeast 234 269 4,500 -689 Descending Indianapolis Center
Thu 08:44:27 PM 40.0778 -84.2575 157° South 234 269 4,400 -968 Descending Indianapolis Center
Thu 08:45:07 PM 40.0422 -84.2369 156° South 228 262 3,500 -1,180 Descending Indianapolis Center
Thu 08:45:28 PM 40.0256 -84.2286 159° South 199 229 3,200 -984 Descending Indianapolis Center
Thu 08:46:08 PM 39.9958 -84.2150 161° South 199 229 2,500 -885 Descending Indianapolis Center
Thu 08:46:29 PM 39.9825 -84.2147 179° South 140 161 2,300 -571 Descending Indianapolis Center

Login

Don't have an account? Register now (free) for customized features, flight alerts, and more!